createdAt,value
2023-02-12T00:00:20.512Z,20.28
2023-02-12T00:02:47.330Z,20.28
2023-02-12T00:05:14.036Z,20.26
2023-02-12T00:07:40.570Z,20.25
2023-02-12T00:10:07.231Z,20.22
2023-02-12T00:12:34.184Z,20.22
2023-02-12T00:15:00.544Z,20.22
2023-02-12T00:17:27.032Z,20.21
2023-02-12T00:19:53.787Z,20.18
2023-02-12T00:22:20.148Z,20.12
2023-02-12T00:24:47.093Z,20.10
2023-02-12T00:27:13.696Z,20.06
2023-02-12T00:29:40.129Z,20.03
2023-02-12T00:32:06.619Z,19.98
2023-02-12T00:34:33.338Z,19.93
2023-02-12T00:36:59.739Z,19.88
2023-02-12T00:39:26.159Z,19.86
2023-02-12T00:41:53.526Z,19.82
2023-02-12T00:44:19.997Z,19.78
2023-02-12T00:46:46.706Z,19.73
2023-02-12T00:49:13.303Z,19.73
2023-02-12T00:51:39.752Z,19.66
2023-02-12T00:54:06.167Z,19.65
2023-02-12T00:56:32.572Z,19.62
2023-02-12T00:58:59.278Z,19.55
2023-02-12T01:01:25.752Z,19.51
2023-02-12T01:03:52.161Z,19.53
2023-02-12T01:06:19.004Z,19.50
2023-02-12T01:08:45.656Z,19.42
2023-02-12T01:11:12.074Z,19.38
2023-02-12T01:13:38.581Z,19.37
2023-02-12T01:16:05.208Z,19.34
2023-02-12T01:18:32.041Z,19.31
2023-02-12T01:20:58.650Z,19.24
2023-02-12T01:23:25.467Z,19.26
2023-02-12T01:25:51.979Z,19.20
2023-02-12T01:28:18.512Z,19.18
2023-02-12T01:30:45.222Z,19.16
2023-02-12T01:33:12.052Z,19.14
2023-02-12T01:35:38.325Z,19.09
2023-02-12T01:38:05.270Z,19.07
2023-02-12T01:40:31.962Z,19.05
2023-02-12T01:42:58.624Z,19.02
2023-02-12T01:45:25.239Z,19.01
2023-02-12T01:47:51.718Z,18.97
2023-02-12T01:50:18.152Z,18.95
2023-02-12T01:52:44.660Z,18.89
2023-02-12T01:55:11.100Z,18.90
2023-02-12T01:57:37.665Z,18.86
2023-02-12T02:00:04.206Z,18.85
2023-02-12T02:02:31.525Z,18.87
2023-02-12T02:04:57.972Z,18.80
2023-02-12T02:07:25.257Z,18.79
2023-02-12T02:09:51.861Z,18.75
2023-02-12T02:12:18.263Z,18.76
2023-02-12T02:14:44.943Z,18.70
2023-02-12T02:17:11.342Z,18.72
2023-02-12T02:19:38.084Z,18.69
2023-02-12T02:22:04.674Z,18.67
2023-02-12T02:24:31.204Z,18.66
2023-02-12T02:26:57.596Z,18.63
2023-02-12T02:29:24.061Z,18.64
2023-02-12T02:31:50.612Z,18.58
2023-02-12T02:34:17.293Z,18.59
2023-02-12T02:36:58.285Z,18.58
2023-02-12T02:39:26.440Z,18.58
2023-02-12T02:41:52.933Z,18.52
2023-02-12T02:44:19.762Z,18.48
2023-02-12T02:46:46.382Z,18.48
2023-02-12T02:49:12.673Z,18.54
2023-02-12T02:51:39.078Z,18.47
2023-02-12T02:54:05.539Z,18.45
2023-02-12T02:56:32.055Z,18.43
2023-02-12T02:58:58.529Z,18.41
2023-02-12T03:01:25.156Z,18.38
2023-02-12T03:03:51.784Z,18.38
2023-02-12T03:06:18.634Z,18.37
2023-02-12T03:08:45.139Z,18.34
2023-02-12T03:11:11.531Z,18.29
2023-02-12T03:13:38.331Z,18.31
2023-02-12T03:16:04.720Z,18.30
2023-02-12T03:18:31.373Z,18.29
2023-02-12T03:20:57.853Z,18.14
2023-02-12T03:23:24.727Z,18.24
2023-02-12T03:25:51.159Z,18.22
2023-02-12T03:28:18.524Z,18.19
2023-02-12T03:30:45.023Z,18.20
2023-02-12T03:33:11.466Z,18.17
2023-02-12T03:35:38.660Z,18.16
2023-02-12T03:38:05.264Z,18.14
2023-02-12T03:40:32.308Z,18.13
2023-02-12T03:42:58.841Z,18.14
2023-02-12T03:45:25.236Z,18.15
2023-02-12T03:47:51.866Z,18.15
2023-02-12T03:50:18.265Z,18.13
2023-02-12T03:52:44.751Z,18.13
2023-02-12T03:55:11.157Z,18.14
2023-02-12T03:57:37.700Z,18.15
2023-02-12T04:00:04.107Z,18.15
2023-02-12T04:02:30.476Z,18.15
2023-02-12T04:04:57.095Z,18.16
2023-02-12T04:07:23.489Z,18.15
2023-02-12T04:09:50.119Z,18.15
2023-02-12T04:12:17.142Z,18.15
2023-02-12T04:14:43.581Z,18.14
2023-02-12T04:17:10.279Z,18.14
2023-02-12T04:19:36.779Z,18.14
2023-02-12T04:22:03.083Z,18.16
2023-02-12T04:24:29.429Z,18.14
2023-02-12T04:26:55.993Z,18.15
2023-02-12T04:29:22.427Z,18.16
2023-02-12T04:31:48.884Z,18.15
2023-02-12T04:34:15.390Z,18.16
2023-02-12T04:36:41.781Z,18.16
2023-02-12T04:39:08.240Z,18.16
2023-02-12T04:41:35.247Z,18.16
2023-02-12T04:44:01.633Z,18.16
2023-02-12T04:46:28.277Z,18.16
2023-02-12T04:48:54.987Z,18.15
2023-02-12T04:51:21.490Z,18.16
2023-02-12T04:53:48.069Z,18.15
2023-02-12T04:56:14.529Z,18.16
2023-02-12T04:58:41.118Z,18.15
2023-02-12T05:01:07.735Z,18.16
2023-02-12T05:03:34.737Z,18.16
2023-02-12T05:06:01.071Z,18.15
2023-02-12T05:08:27.798Z,18.16
2023-02-12T05:10:54.578Z,18.14
2023-02-12T05:13:21.088Z,18.15
2023-02-12T05:15:47.759Z,18.15
2023-02-12T05:18:14.857Z,18.15
2023-02-12T05:20:41.547Z,18.15
2023-02-12T05:23:07.893Z,18.16
2023-02-12T05:25:34.525Z,18.15
2023-02-12T05:28:01.143Z,18.16
2023-02-12T05:30:27.524Z,18.16
2023-02-12T05:32:54.026Z,18.16
2023-02-12T05:35:21.104Z,18.15
2023-02-12T05:37:47.592Z,18.15
2023-02-12T05:40:14.292Z,18.17
2023-02-12T05:42:41.358Z,18.16
2023-02-12T05:45:08.029Z,18.15
2023-02-12T05:47:34.800Z,18.17
2023-02-12T05:50:01.221Z,18.16
2023-02-12T05:52:27.753Z,18.15
2023-02-12T05:54:54.343Z,18.15
2023-02-12T05:57:20.874Z,18.15
2023-02-12T05:59:47.265Z,18.15
2023-02-12T06:02:13.844Z,18.16
2023-02-12T06:04:41.033Z,18.16
2023-02-12T06:07:07.586Z,18.16
2023-02-12T06:09:34.102Z,18.14
2023-02-12T06:12:00.520Z,18.15
2023-02-12T06:14:27.020Z,18.15
2023-02-12T06:16:53.502Z,18.15
2023-02-12T06:19:20.015Z,18.14
2023-02-12T06:21:46.705Z,18.15
2023-02-12T06:24:13.881Z,18.14
2023-02-12T06:26:40.181Z,18.17
2023-02-12T06:29:06.572Z,18.17
2023-02-12T06:31:33.143Z,18.16
2023-02-12T06:34:00.210Z,18.16
2023-02-12T06:36:27.318Z,18.16
2023-02-12T06:38:53.839Z,18.15
2023-02-12T06:41:20.263Z,18.16
2023-02-12T06:43:46.703Z,18.16
2023-02-12T06:46:13.525Z,18.15
2023-02-12T06:48:40.146Z,18.16
2023-02-12T06:51:06.755Z,18.16
2023-02-12T06:53:33.175Z,18.16
2023-02-12T06:55:59.892Z,18.17
2023-02-12T06:58:27.081Z,18.16
2023-02-12T07:00:53.905Z,18.18
2023-02-12T07:03:20.726Z,18.16
2023-02-12T07:05:47.737Z,18.16
2023-02-12T07:08:14.821Z,18.16
2023-02-12T07:10:41.292Z,18.17
2023-02-12T07:13:07.631Z,18.17
2023-02-12T07:15:33.985Z,18.17
2023-02-12T07:18:00.543Z,18.18
2023-02-12T07:20:27.216Z,18.17
2023-02-12T07:22:53.724Z,18.17
2023-02-12T07:25:20.346Z,18.18
2023-02-12T07:27:47.492Z,18.17
2023-02-12T07:30:14.107Z,18.16
2023-02-12T07:32:40.834Z,18.17
2023-02-12T07:35:07.672Z,18.17
2023-02-12T07:37:34.193Z,18.17
2023-02-12T07:40:00.759Z,18.18
2023-02-12T07:42:27.861Z,18.18
2023-02-12T07:44:54.339Z,18.17
2023-02-12T07:47:21.104Z,18.17
2023-02-12T07:49:47.483Z,18.17
2023-02-12T07:52:14.154Z,18.17
2023-02-12T07:54:41.397Z,18.17
2023-02-12T07:57:07.940Z,18.18
2023-02-12T07:59:34.639Z,18.18
2023-02-12T08:02:01.732Z,18.16
2023-02-12T08:04:28.290Z,18.16
2023-02-12T08:06:54.751Z,18.15
2023-02-12T08:09:21.578Z,18.16
2023-02-12T08:11:48.334Z,18.15
2023-02-12T08:14:14.822Z,18.16
2023-02-12T08:16:41.481Z,18.16
2023-02-12T08:19:18.694Z,18.15
2023-02-12T08:21:46.009Z,18.15
2023-02-12T08:24:12.546Z,18.15
2023-02-12T08:26:39.209Z,18.14
2023-02-12T08:29:05.844Z,18.15
2023-02-12T08:31:32.327Z,18.16
2023-02-12T08:33:58.919Z,18.16
2023-02-12T08:36:25.358Z,18.15
2023-02-12T08:38:51.801Z,18.14
2023-02-12T08:41:20.582Z,18.14
2023-02-12T08:43:48.054Z,18.13
2023-02-12T08:46:14.534Z,18.16
2023-02-12T08:48:41.179Z,18.15
2023-02-12T08:51:07.634Z,18.16
2023-02-12T08:53:34.383Z,18.16
2023-02-12T08:56:00.759Z,18.15
2023-02-12T08:58:27.183Z,18.14
2023-02-12T09:00:53.608Z,18.15
2023-02-12T09:03:20.386Z,18.14
2023-02-12T09:05:47.048Z,18.13
2023-02-12T09:08:13.502Z,18.13
2023-02-12T09:10:39.988Z,18.14
2023-02-12T09:13:06.438Z,18.14
2023-02-12T09:15:32.836Z,18.13
2023-02-12T09:17:59.407Z,18.16
2023-02-12T09:20:25.783Z,18.16
2023-02-12T09:22:52.433Z,18.15
2023-02-12T09:25:19.089Z,18.16
2023-02-12T09:27:45.522Z,18.14
2023-02-12T09:30:11.881Z,18.16
2023-02-12T09:32:38.911Z,18.16
2023-02-12T09:35:05.740Z,18.15
2023-02-12T09:37:32.164Z,18.17
2023-02-12T09:39:58.591Z,18.15
2023-02-12T09:42:25.064Z,18.17
2023-02-12T09:44:51.678Z,18.15
2023-02-12T09:47:18.491Z,18.16
2023-02-12T09:49:45.058Z,18.17
2023-02-12T09:52:11.483Z,18.16
2023-02-12T09:54:38.000Z,18.16
2023-02-12T09:57:04.384Z,18.18
2023-02-12T09:59:30.763Z,18.16
2023-02-12T10:01:57.427Z,18.16
2023-02-12T10:04:23.866Z,18.16
2023-02-12T10:06:50.374Z,18.14
2023-02-12T10:09:16.889Z,18.15
2023-02-12T10:11:43.611Z,18.16
2023-02-12T10:14:10.007Z,18.16
2023-02-12T10:16:38.320Z,18.15
2023-02-12T10:19:05.034Z,18.15
2023-02-12T10:21:31.526Z,18.15
2023-02-12T10:23:58.086Z,18.16
2023-02-12T10:26:24.572Z,18.17
2023-02-12T10:28:51.191Z,18.17
2023-02-12T10:31:18.124Z,18.17
2023-02-12T10:33:44.696Z,18.17
2023-02-12T10:36:11.162Z,18.17
2023-02-12T10:38:37.633Z,18.17
2023-02-12T10:41:04.172Z,18.17
2023-02-12T10:43:30.622Z,18.17
2023-02-12T10:45:57.812Z,18.17
2023-02-12T10:48:24.705Z,18.18
2023-02-12T10:50:51.655Z,18.17
2023-02-12T10:53:18.285Z,18.18
2023-02-12T10:55:44.980Z,18.17
2023-02-12T10:58:11.425Z,18.17
2023-02-12T11:00:37.916Z,18.18
2023-02-12T11:03:04.598Z,18.17
2023-02-12T11:05:31.199Z,18.17
2023-02-12T11:07:57.869Z,18.18
2023-02-12T11:10:24.460Z,18.18
2023-02-12T11:12:50.863Z,18.17
2023-02-12T11:15:17.307Z,18.17
2023-02-12T11:17:43.704Z,18.17
2023-02-12T11:20:10.198Z,18.18
2023-02-12T11:22:36.888Z,18.19
2023-02-12T11:25:03.751Z,18.20
2023-02-12T11:27:30.213Z,18.19
2023-02-12T11:29:57.013Z,18.18
2023-02-12T11:32:23.468Z,18.18
2023-02-12T11:34:50.395Z,18.19
2023-02-12T11:37:17.094Z,18.18
2023-02-12T11:39:43.898Z,18.19
2023-02-12T11:42:10.264Z,18.19
2023-02-12T11:44:36.622Z,18.20
2023-02-12T11:47:03.391Z,18.18
2023-02-12T11:49:29.746Z,18.18
2023-02-12T11:51:56.693Z,18.18
2023-02-12T11:54:23.036Z,18.19
2023-02-12T11:56:49.522Z,18.20
2023-02-12T11:59:16.152Z,18.19
2023-02-12T12:01:42.867Z,18.19
2023-02-12T12:04:09.510Z,18.19
2023-02-12T12:06:35.947Z,18.20
2023-02-12T12:09:02.566Z,18.20
2023-02-12T12:11:29.514Z,18.20
2023-02-12T12:13:56.178Z,18.20
2023-02-12T12:16:22.786Z,18.20
2023-02-12T12:18:49.611Z,18.20
2023-02-12T12:21:16.046Z,18.20
2023-02-12T12:23:42.495Z,18.21
2023-02-12T12:26:09.354Z,18.21
2023-02-12T12:28:35.863Z,18.22
2023-02-12T12:31:02.378Z,18.22
2023-02-12T12:33:28.855Z,18.22
2023-02-12T12:35:55.604Z,18.21
2023-02-12T12:38:22.707Z,18.20
2023-02-12T12:40:49.293Z,18.19
2023-02-12T12:43:16.008Z,18.21
2023-02-12T12:45:42.471Z,18.21
2023-02-12T12:48:09.026Z,18.20
2023-02-12T12:50:35.712Z,18.18
2023-02-12T12:53:02.471Z,18.31
2023-02-12T12:55:29.256Z,18.30
2023-02-12T12:57:58.234Z,18.31
2023-02-12T13:00:25.381Z,18.33
2023-02-12T13:02:51.942Z,18.35
2023-02-12T13:05:18.770Z,18.38
2023-02-12T13:07:45.353Z,18.39
2023-02-12T13:10:11.739Z,18.42
2023-02-12T13:12:38.438Z,18.43
2023-02-12T13:15:04.946Z,18.43
2023-02-12T13:17:31.913Z,18.45
2023-02-12T13:19:58.719Z,18.48
2023-02-12T13:22:26.473Z,18.48
2023-02-12T13:24:52.959Z,18.51
2023-02-12T13:27:19.522Z,18.51
2023-02-12T13:29:45.923Z,18.53
2023-02-12T13:32:13.087Z,18.54
2023-02-12T13:34:40.014Z,18.56
2023-02-12T13:37:06.774Z,18.56
2023-02-12T13:39:34.198Z,18.57
2023-02-12T13:42:00.799Z,18.58
2023-02-12T13:44:27.771Z,18.58
2023-02-12T13:46:54.700Z,18.58
2023-02-12T13:49:21.110Z,18.60
2023-02-12T13:51:48.259Z,18.61
2023-02-12T13:54:15.006Z,18.61
2023-02-12T13:56:41.779Z,18.61
2023-02-12T13:59:08.900Z,18.61
2023-02-12T14:01:35.268Z,18.61
2023-02-12T14:04:01.655Z,18.60
2023-02-12T14:06:28.277Z,18.58
2023-02-12T14:08:55.029Z,18.60
2023-02-12T14:11:21.464Z,18.60
2023-02-12T14:13:47.943Z,18.58
2023-02-12T14:16:14.906Z,18.47
2023-02-12T14:18:41.503Z,18.27
2023-02-12T14:21:08.446Z,18.07
2023-02-12T14:23:34.997Z,17.93
2023-02-12T14:26:01.522Z,17.81
2023-02-12T14:28:27.922Z,17.70
2023-02-12T14:30:54.626Z,17.74
2023-02-12T14:33:21.160Z,17.87
2023-02-12T14:35:47.958Z,17.95
2023-02-12T14:38:14.668Z,18.00
2023-02-12T14:40:41.959Z,18.03
2023-02-12T14:43:08.368Z,18.06
2023-02-12T14:45:35.358Z,18.09
2023-02-12T14:48:01.776Z,18.10
2023-02-12T14:50:29.782Z,18.11
2023-02-12T14:52:56.177Z,18.08
2023-02-12T14:55:22.936Z,17.97
2023-02-12T14:57:49.335Z,17.96
2023-02-12T15:00:16.033Z,18.00
2023-02-12T15:02:43.109Z,18.01
2023-02-12T15:05:09.787Z,18.03
2023-02-12T15:07:37.496Z,18.04
2023-02-12T15:10:04.151Z,18.03
2023-02-12T15:12:31.514Z,17.98
2023-02-12T15:14:58.232Z,17.99
2023-02-12T15:17:24.681Z,17.96
2023-02-12T15:19:51.172Z,17.94
2023-02-12T15:22:17.653Z,17.91
2023-02-12T15:24:44.128Z,17.87
2023-02-12T15:27:10.928Z,17.86
2023-02-12T15:29:37.377Z,17.85
2023-02-12T15:32:04.606Z,17.83
2023-02-12T15:34:30.954Z,17.76
2023-02-12T15:36:57.465Z,17.77
2023-02-12T15:39:24.283Z,17.76
2023-02-12T15:41:50.680Z,17.75
2023-02-12T15:44:17.052Z,17.73
2023-02-12T15:46:43.548Z,17.70
2023-02-12T15:49:10.280Z,17.67
2023-02-12T15:51:37.008Z,17.65
2023-02-12T15:54:03.562Z,17.63
2023-02-12T15:56:29.974Z,17.63
2023-02-12T15:58:56.470Z,17.61
2023-02-12T16:01:22.980Z,17.62
2023-02-12T16:03:49.661Z,17.61
2023-02-12T16:06:16.225Z,17.56
2023-02-12T16:08:42.647Z,17.55
2023-02-12T16:11:09.106Z,17.55
2023-02-12T16:13:35.994Z,17.52
2023-02-12T16:16:02.545Z,17.53
2023-02-12T16:18:29.202Z,17.48
2023-02-12T16:20:55.634Z,17.47
2023-02-12T16:23:22.264Z,17.48
2023-02-12T16:25:48.840Z,17.49
2023-02-12T16:28:15.770Z,17.47
2023-02-12T16:30:42.239Z,17.47
2023-02-12T16:33:08.686Z,17.46
2023-02-12T16:35:35.112Z,17.45
2023-02-12T16:38:01.599Z,17.46
2023-02-12T16:40:28.359Z,17.47
2023-02-12T16:42:54.920Z,17.45
2023-02-12T16:45:21.315Z,17.43
2023-02-12T16:47:47.849Z,17.43
2023-02-12T16:50:14.180Z,17.42
2023-02-12T16:52:40.548Z,17.42
2023-02-12T16:55:06.923Z,17.37
2023-02-12T16:57:33.430Z,17.36
2023-02-12T17:00:00.018Z,17.34
2023-02-12T17:02:26.635Z,17.38
2023-02-12T17:04:55.065Z,17.41
2023-02-12T17:07:22.123Z,17.28
2023-02-12T17:09:48.657Z,17.32
2023-02-12T17:12:15.326Z,17.37
2023-02-12T17:14:41.999Z,17.33
2023-02-12T17:17:08.513Z,17.27
2023-02-12T17:19:35.299Z,17.34
2023-02-12T17:22:01.781Z,17.27
2023-02-12T17:24:28.931Z,17.32
2023-02-12T17:26:55.506Z,17.23
2023-02-12T17:29:22.027Z,17.24
2023-02-12T17:31:48.725Z,17.26
2023-02-12T17:34:15.622Z,17.29
2023-02-12T17:36:42.419Z,17.24
2023-02-12T17:39:09.041Z,17.18
2023-02-12T17:41:35.639Z,17.17
2023-02-12T17:44:02.322Z,17.13
2023-02-12T17:46:29.058Z,17.13
2023-02-12T17:48:55.665Z,17.14
2023-02-12T17:51:22.179Z,17.09
2023-02-12T17:53:48.556Z,17.11
2023-02-12T17:56:14.948Z,17.09
2023-02-12T17:58:41.804Z,17.07
2023-02-12T18:01:08.614Z,17.06
2023-02-12T18:03:35.022Z,17.06
2023-02-12T18:06:01.757Z,16.99
2023-02-12T18:08:28.262Z,17.03
2023-02-12T18:10:55.024Z,17.01
2023-02-12T18:13:21.684Z,17.03
2023-02-12T18:15:48.465Z,16.96
2023-02-12T18:18:15.414Z,16.94
2023-02-12T18:20:41.907Z,16.99
2023-02-12T18:23:09.059Z,16.95
2023-02-12T18:25:35.838Z,16.91
2023-02-12T18:28:02.554Z,16.88
2023-02-12T18:30:29.742Z,16.89
2023-02-12T18:32:56.967Z,16.87
2023-02-12T18:35:23.391Z,16.86
2023-02-12T18:37:49.858Z,16.83
2023-02-12T18:40:16.248Z,16.85
2023-02-12T18:42:42.977Z,16.86
2023-02-12T18:45:09.519Z,16.82
2023-02-12T18:47:36.122Z,16.83
2023-02-12T18:50:02.482Z,16.82
2023-02-12T18:52:29.027Z,16.82
2023-02-12T18:54:55.881Z,16.78
2023-02-12T18:57:22.253Z,16.77
2023-02-12T18:59:49.275Z,16.74
2023-02-12T19:02:16.020Z,16.70
2023-02-12T19:04:42.737Z,16.73
2023-02-12T19:07:09.378Z,16.67
2023-02-12T19:09:35.703Z,16.68
2023-02-12T19:12:02.116Z,16.68
2023-02-12T19:14:28.486Z,16.68
2023-02-12T19:16:55.061Z,16.65
2023-02-12T19:19:21.393Z,16.65
2023-02-12T19:21:48.158Z,16.65
2023-02-12T19:24:14.707Z,16.65
2023-02-12T19:26:41.132Z,16.63
2023-02-12T19:29:07.458Z,16.62
2023-02-12T19:31:34.209Z,16.61
2023-02-12T19:34:00.927Z,16.57
2023-02-12T19:36:27.468Z,16.57
2023-02-12T19:38:53.938Z,16.55
2023-02-12T19:41:20.595Z,16.55
2023-02-12T19:43:47.072Z,16.55
2023-02-12T19:46:13.571Z,16.51
2023-02-12T19:48:40.120Z,16.50
2023-02-12T19:51:06.525Z,16.47
2023-02-12T19:53:33.142Z,16.44
2023-02-12T19:55:59.668Z,16.46
2023-02-12T19:58:26.720Z,16.43
2023-02-12T20:00:53.675Z,16.43
2023-02-12T20:03:20.294Z,16.41
2023-02-12T20:05:46.741Z,16.42
2023-02-12T20:08:13.460Z,16.41
2023-02-12T20:10:39.955Z,16.39
2023-02-12T20:13:06.569Z,16.36
2023-02-12T20:15:33.125Z,16.39
2023-02-12T20:17:59.774Z,16.37
2023-02-12T20:20:26.142Z,16.37
2023-02-12T20:22:52.904Z,16.39
2023-02-12T20:25:19.793Z,16.37
2023-02-12T20:27:46.259Z,16.34
2023-02-12T20:30:12.843Z,16.29
2023-02-12T20:32:39.270Z,16.32
2023-02-12T20:35:06.051Z,16.30
2023-02-12T20:37:32.574Z,16.30
2023-02-12T20:39:59.016Z,16.29
2023-02-12T20:42:25.386Z,16.26
2023-02-12T20:44:51.743Z,16.25
2023-02-12T20:47:18.096Z,16.25
2023-02-12T20:49:44.519Z,16.22
2023-02-12T20:52:11.055Z,16.25
2023-02-12T20:54:37.608Z,16.25
2023-02-12T20:57:04.044Z,16.24
2023-02-12T20:59:30.471Z,16.21
2023-02-12T21:01:57.139Z,16.21
2023-02-12T21:04:23.612Z,16.22
2023-02-12T21:06:50.189Z,16.22
2023-02-12T21:09:16.975Z,16.22
2023-02-12T21:11:43.477Z,16.22
2023-02-12T21:14:21.887Z,16.19
2023-02-12T21:16:49.748Z,16.19
2023-02-12T21:19:16.983Z,16.16
2023-02-12T21:21:43.457Z,16.15
2023-02-12T21:24:09.974Z,16.14
2023-02-12T21:26:36.589Z,16.17
2023-02-12T21:29:03.123Z,16.16
2023-02-12T21:31:29.775Z,16.15
2023-02-12T21:33:56.243Z,16.13
2023-02-12T21:36:22.928Z,16.14
2023-02-12T21:38:49.593Z,16.13
2023-02-12T21:41:15.998Z,16.13
2023-02-12T21:43:42.429Z,16.14
2023-02-12T21:46:08.897Z,16.15
2023-02-12T21:48:35.566Z,16.13
2023-02-12T21:51:02.048Z,16.11
2023-02-12T21:53:29.134Z,16.10
2023-02-12T21:55:55.936Z,16.07
2023-02-12T21:58:22.554Z,16.10
2023-02-12T22:00:49.021Z,16.09
2023-02-12T22:03:15.598Z,16.07
2023-02-12T22:05:42.221Z,16.04
2023-02-12T22:08:08.688Z,16.08
2023-02-12T22:10:35.095Z,16.03
2023-02-12T22:13:01.646Z,16.02
2023-02-12T22:15:28.133Z,16.06
2023-02-12T22:17:54.632Z,16.03
2023-02-12T22:20:21.153Z,16.03
2023-02-12T22:22:48.165Z,16.01
2023-02-12T22:25:14.964Z,16.02
2023-02-12T22:27:41.599Z,16.01
2023-02-12T22:30:08.101Z,16.04
2023-02-12T22:32:34.861Z,16.03
2023-02-12T22:35:01.308Z,15.99
2023-02-12T22:37:28.077Z,15.99
2023-02-12T22:39:54.385Z,15.98
2023-02-12T22:42:21.064Z,15.99
2023-02-12T22:44:47.553Z,15.95
2023-02-12T22:47:13.894Z,15.97
2023-02-12T22:49:40.248Z,15.96
2023-02-12T22:52:06.739Z,15.93
2023-02-12T22:54:33.112Z,15.92
2023-02-12T22:56:59.532Z,15.94
2023-02-12T22:59:25.966Z,15.92
2023-02-12T23:01:52.375Z,15.92
2023-02-12T23:04:18.899Z,15.89
2023-02-12T23:06:45.769Z,15.90
2023-02-12T23:09:12.306Z,15.89
2023-02-12T23:11:39.180Z,15.86
2023-02-12T23:14:05.687Z,15.90
2023-02-12T23:16:32.399Z,15.89
2023-02-12T23:18:59.346Z,15.91
2023-02-12T23:21:26.107Z,15.90
2023-02-12T23:23:53.054Z,15.85
2023-02-12T23:26:19.721Z,15.85
2023-02-12T23:28:46.538Z,15.86
2023-02-12T23:31:13.002Z,15.84
2023-02-12T23:33:39.685Z,15.84
2023-02-12T23:36:06.215Z,15.82
2023-02-12T23:38:32.719Z,15.81
2023-02-12T23:40:59.613Z,15.80
2023-02-12T23:43:26.256Z,15.79
2023-02-12T23:45:52.772Z,15.81
2023-02-12T23:48:19.207Z,15.78
2023-02-12T23:50:45.636Z,15.77
2023-02-12T23:53:12.128Z,15.77
2023-02-12T23:55:38.645Z,15.73
2023-02-12T23:58:05.206Z,15.75
